Joseph City, Arizona
Current Conditions -  °F | °C
As of 5:34 AM on Sunday 21 Dec 2014 (Local Time) from KINW Reporting Station
Haze Haze  
Wind Chill: -3°   Ceiling: 200
Heat Index: -3°   Visibility: 1.2mi
Dew Point: -4°   Wind: 3mph
Humidity: 92%   Direction: 120°ESE
Pressure: 30.13"   Gusts: NA
Location:  34.96°N, 110.34°W
Report Text: KINW 211234Z AUTO 12003KT 1 1/4SM BR OVC002 M03/M04 A3013 RMK AO2 I1000 T10281039
Loading
Personal Weather Stations






























Interactive Weather Map New forecast layout! Learn more

10-Day Weather Forecast

Advertisements
Track Severe Weather on mobile